• Join FlightAware (Why Join?)
  • Login
  • US Flag GB Flag 
21:03 EDT


 

Airport Tracker/Info


-or-


 

Live Flight TrackerFlight Track Log ✈ UAL5829 ✈ 23-Apr-2013 ✈ KICT - KORD

Flight Track Log - Related Links

Times and Time Zones

All times are in EDT time to prevent confusion due to time zone crossing. See the UAL5829 flight status page for this flight to view local times or setup timezone preferences in your user account.

Time Position Orientation Groundspeed Altitude Reporting Facility
EDT Latitude Longitude Course Direction KTS MPH feet Rate Location/Type
07:07 37.7406 -97.3525 52° Northeast 220 253 5,200  Level Kansas City Center
07:08 37.7833 -97.2836 52° Northeast 247 284 7,200 1,860 Climbing Kansas City Center
07:09 37.8308 -97.2103 51° Northeast 267 307 9,000 1,440 Climbing Kansas City Center
07:10 37.8825 -97.1242 53° Northeast 304 350 10,200 1,080 Climbing Kansas City Center
07:11 37.9414 -97.0250 53° Northeast 346 398 11,300 1,080 Climbing Kansas City Center
07:12 38.0069 -96.9189 52° Northeast 379 436 12,400 1,260 Climbing Kansas City Center
07:13 38.0753 -96.8075 52° Northeast 397 457 13,800 1,440 Climbing Kansas City Center
07:14 38.1425 -96.6944 53° Northeast 401 461 15,300 1,500 Climbing Kansas City Center
07:15 38.2103 -96.5822 52° Northeast 402 463 16,900 1,620 Climbing Kansas City Center
07:16 38.2894 -96.4489 53° Northeast 408 470 18,600 1,320 Climbing Kansas City Center
07:17 38.3564 -96.3364 53° Northeast 415 478 19,600 1,020 Climbing Kansas City Center
07:18 38.4269 -96.2192 52° Northeast 433 498 20,700 1,140 Climbing Kansas City Center
07:19 38.5100 -96.0775 53° Northeast 445 512 21,900 1,020 Climbing Kansas City Center
07:20 38.5808 -95.9539 54° Northeast 450 518 22,900 960 Climbing Kansas City Center
07:21 38.6547 -95.8308 52° Northeast 454 522 23,900 1,140 Climbing Kansas City Center
07:22 38.7272 -95.7075 53° Northeast 453 521 25,200 1,380 Climbing Kansas City Center
07:23 38.8092 -95.5653 53° Northeast 446 513 26,700 1,320 Climbing Kansas City Center
07:24 38.8783 -95.4486 53° Northeast 435 501 27,900 1,200 Climbing Kansas City Center
07:25 38.9575 -95.3119 53° Northeast 430 495 29,200 1,140 Climbing Kansas City Center
07:26 39.0311 -95.1839 53° Northeast 434 499 30,300 960 Climbing Kansas City Center
07:27 39.0933 -95.0736 54° Northeast 440 506 31,200 1,020 Climbing Kansas City Center
07:28 39.1753 -94.9306 54° Northeast 450 518 32,400 1,020 Climbing Kansas City Center
07:29 39.2456 -94.8067 54° Northeast 451 519 33,400 960 Climbing Kansas City Center
07:30 39.3103 -94.6731 58° Northeast 460 529 34,400 780 Climbing Kansas City Center
07:31 39.3786 -94.5086 62° Northeast 467 537 35,000 240 Climbing Kansas City Center
07:32 39.4386 -94.3617 62° Northeast 482 555 35,000  Level Kansas City Center
07:33 39.5006 -94.2078 62° Northeast 500 575 35,000  Level Kansas City Center
07:34 39.5744 -94.0242 62° Northeast 513 590 35,000  Level Kansas City Center
07:35 39.6369 -93.8667 63° Northeast 513 590 35,000  Level Kansas City Center
07:36 39.6964 -93.7175 63° Northeast 513 590 35,000  Level Kansas City Center
07:37 39.7756 -93.5178 63° Northeast 521 600 35,000  Level Kansas City Center
07:38 39.8406 -93.3553 62° Northeast 513 590 35,000  Level Kansas City Center
07:39 39.9039 -93.1917 63° Northeast 510 587 35,000  Level Kansas City Center
07:40 39.9675 -93.0256 63° Northeast 516 594 35,000  Level Kansas City Center
07:41 40.0308 -92.8622 63° Northeast 512 589 35,000  Level Kansas City Center
07:42 40.1017 -92.6756 64° Northeast 513 590 35,000  Level Kansas City Center
07:43 40.1625 -92.5136 64° Northeast 516 594 35,000  Level Kansas City Center
07:44 40.2283 -92.3378 64° Northeast 514 592 35,000  Level Kansas City Center
07:45 40.2881 -92.1686 65° Northeast 519 597 35,000  Level Kansas City Center
07:46 40.3483 -91.9992 65° Northeast 520 598 35,000 -300 Level Kansas City Center
07:48 40.4083 -91.8283 65° Northeast 521 600 34,400 -1,020 Descending Kansas City Center
07:49 40.4681 -91.6553 66° East 524 603 33,000 -900 Descending Kansas City Center
07:49 40.5036 -91.5522 66° East 522 601 33,000  Level Chicago Center
07:50 40.5750 -91.3417 66° East 527 606 33,000  Level Chicago Center
07:51 40.6350 -91.1642 66° East 535 616 33,000  Level Chicago Center
07:52 40.6975 -90.9836 65° Northeast 539 620 33,000 -120 Level Chicago Center
07:53 40.7569 -90.8036 66° East 536 617 32,800 -540 Descending Chicago Center
07:54 40.8175 -90.6247 66° East 533 613 31,900 -960 Descending Chicago Center
07:55 40.8775 -90.4489 66° East 524 603 30,900 -1,020 Descending Chicago Center
07:56 40.9433 -90.2478 67° East 529 609 29,900 -1,200 Descending Chicago Center
07:57 41.0028 -90.0711 66° East 529 609 28,500 -1,380 Descending Chicago Center
07:58 41.0542 -89.9147 66° East 515 593 27,100 -1,440 Descending Chicago Center
07:59 41.1078 -89.7503 67° East 489 563 25,600 -1,500 Descending Chicago Center
08:00 41.1622 -89.5858 66° East 485 558 24,100 -1,620 Descending Chicago Center
08:01 41.2342 -89.4050 62° Northeast 467 537 22,300 -2,520 Descending Chicago Center
08:03 41.2919 -89.2669 61° Northeast 432 497 19,000 -3,060 Descending Chicago Center
08:04 41.3422 -89.1356 63° Northeast 390 449 16,100 -2,880 Descending Chicago Center
08:05 41.3922 -89.0106 62° Northeast 388 447 13,100 -2,520 Descending Chicago Center
08:06 41.4431 -88.8814 62° Northeast 394 453 11,000 -1,080 Descending Chicago Center
08:07 41.4931 -88.7558 62° Northeast 388 447 11,000  Level Chicago Center
08:08 41.5464 -88.6350 59° Northeast 380 437 11,000 -60 Level Chicago Center
08:09 41.6100 -88.5300 51° Northeast 354 407 10,900 -900 Descending Chicago Center
08:10 41.6778 -88.4186 51° Northeast 323 372 9,200 -1,440 Descending Chicago Center
08:11 41.7308 -88.3283 52° Northeast 312 359 8,000 -1,020 Descending Chicago Center
08:12 41.7825 -88.2428 51° Northeast 298 343 7,100 -540 Descending Chicago Center
08:13 41.8283 -88.1642 52° Northeast 272 313 7,000 -60 Descending Chicago Center
08:14 41.8833 -88.1167 33° Northeast 223 257 7,000  Level Chicago TRACON
08:15 41.9333 -88.1167 360° North 208 239 7,000  Level Chicago TRACON
08:16 42.0000 -88.1167 360° North 209 241 7,000  Level Chicago TRACON
08:17 42.0333 -88.1500 323° Northwest 182 209 7,000 -360 Level Chicago TRACON
08:18 42.0833 -88.1833 334° Northwest 181 208 6,300 -900 Descending Chicago TRACON
08:19 42.1167 -88.2167 323° Northwest 199 229 5,300 -1,020 Descending Chicago TRACON
08:20 42.1500 -88.1500 56° Northeast 219 252 4,300 -960 Descending Chicago TRACON
08:20 42.1469 -88.1456 133° Southeast 210 242 4,100 -240 Descending Chicago Center
08:21 42.1258 -88.0831 114° Southeast 190 219 4,000 -480 Descending Chicago Center
08:22 42.1000 -88.0500 136° Southeast 179 206 3,300 -1,020 Descending Chicago TRACON
08:23 42.0500 -88.0000 143° Southeast 171 197 2,300 -900 Descending Chicago TRACON
08:24 42.0333 -87.9667 124° Southeast 128 147 1,600 -660 Descending Chicago TRACON
08:25 42.0000 -87.9500 160° South 126 145 1,000 -600 Descending Chicago TRACON
08:27 41.9817 -87.9067 37° Northeast  Level Estimated